sensor_id;sensor_type;location;lat;lon;timestamp;pressure;altitude;pressure_sealevel;temperature;humidity
70468;BME280;57934;51.532;7.684;2023-02-01T00:01:44;100682.97;;;4.27;100.00
70468;BME280;57934;51.532;7.684;2023-02-01T00:04:11;100680.91;;;4.30;100.00
70468;BME280;57934;51.532;7.684;2023-02-01T00:06:36;100680.47;;;4.35;100.00
70468;BME280;57934;51.532;7.684;2023-02-01T00:09:02;100671.69;;;4.36;100.00
70468;BME280;57934;51.532;7.684;2023-02-01T00:11:28;100682.66;;;4.40;100.00
70468;BME280;57934;51.532;7.684;2023-02-01T00:13:56;100676.63;;;4.39;100.00
70468;BME280;57934;51.532;7.684;2023-02-01T00:16:24;100673.44;;;4.45;100.00
70468;BME280;57934;51.532;7.684;2023-02-01T00:18:55;100678.78;;;4.53;100.00
70468;BME280;57934;51.532;7.684;2023-02-01T00:21:22;100667.06;;;4.58;100.00
70468;BME280;57934;51.532;7.684;2023-02-01T00:23:48;100665.97;;;4.60;99.17
70468;BME280;57934;51.532;7.684;2023-02-01T00:26:16;100665.28;;;4.58;99.01
70468;BME280;57934;51.532;7.684;2023-02-01T00:28:43;100663.19;;;4.62;98.93
70468;BME280;57934;51.532;7.684;2023-02-01T00:31:09;100667.16;;;4.66;98.23
70468;BME280;57934;51.532;7.684;2023-02-01T00:33:35;100665.22;;;4.68;98.40
70468;BME280;57934;51.532;7.684;2023-02-01T00:36:06;100660.00;;;4.68;98.08
70468;BME280;57934;51.532;7.684;2023-02-01T00:38:36;100651.19;;;4.69;97.34
70468;BME280;57934;51.532;7.684;2023-02-01T00:43:31;100650.91;;;4.72;96.06
70468;BME280;57934;51.532;7.684;2023-02-01T00:45:57;100645.84;;;4.70;95.59
70468;BME280;57934;51.532;7.684;2023-02-01T00:48:24;100632.91;;;4.69;95.80
70468;BME280;57934;51.532;7.684;2023-02-01T00:50:50;100638.81;;;4.71;95.01
70468;BME280;57934;51.532;7.684;2023-02-01T00:53:16;100635.81;;;4.66;94.91
70468;BME280;57934;51.532;7.684;2023-02-01T00:55:47;100649.28;;;4.71;94.05
70468;BME280;57934;51.532;7.684;2023-02-01T00:58:13;100661.28;;;4.64;94.42
70468;BME280;57934;51.532;7.684;2023-02-01T01:00:39;100655.06;;;4.65;93.09
70468;BME280;57934;51.532;7.684;2023-02-01T01:03:05;100661.63;;;4.69;93.10
70468;BME280;57934;51.532;7.684;2023-02-01T01:05:47;100650.66;;;4.65;91.72
70468;BME280;57934;51.532;7.684;2023-02-01T01:08:14;100647.22;;;4.65;91.77
70468;BME280;57934;51.532;7.684;2023-02-01T01:10:41;100652.47;;;4.65;91.08
70468;BME280;57934;51.532;7.684;2023-02-01T01:13:08;100657.00;;;4.63;90.87
70468;BME280;57934;51.532;7.684;2023-02-01T01:15:38;100658.50;;;4.65;90.07
70468;BME280;57934;51.532;7.684;2023-02-01T01:18:05;100660.94;;;4.67;89.61
70468;BME280;57934;51.532;7.684;2023-02-01T01:20:34;100660.00;;;4.68;89.28
70468;BME280;57934;51.532;7.684;2023-02-01T01:23:01;100652.16;;;4.68;88.30
70468;BME280;57934;51.532;7.684;2023-02-01T01:25:27;100653.13;;;4.67;88.08
70468;BME280;57934;51.532;7.684;2023-02-01T01:27:53;100652.59;;;4.63;87.57
70468;BME280;57934;51.532;7.684;2023-02-01T01:30:19;100648.50;;;4.61;87.41
70468;BME280;57934;51.532;7.684;2023-02-01T01:32:45;100646.25;;;4.66;87.22
70468;BME280;57934;51.532;7.684;2023-02-01T01:35:11;100641.19;;;4.64;87.45
70468;BME280;57934;51.532;7.684;2023-02-01T01:37:37;100646.53;;;4.63;87.22
70468;BME280;57934;51.532;7.684;2023-02-01T01:40:04;100651.63;;;4.64;87.50
70468;BME280;57934;51.532;7.684;2023-02-01T01:42:37;100641.31;;;4.63;86.72
70468;BME280;57934;51.532;7.684;2023-02-01T01:45:05;100634.19;;;4.65;86.22
70468;BME280;57934;51.532;7.684;2023-02-01T01:47:43;100637.88;;;4.62;85.90
70468;BME280;57934;51.532;7.684;2023-02-01T01:50:16;100636.53;;;4.58;85.04
70468;BME280;57934;51.532;7.684;2023-02-01T01:52:46;100640.78;;;4.59;85.37
70468;BME280;57934;51.532;7.684;2023-02-01T01:55:16;100643.41;;;4.59;85.54
70468;BME280;57934;51.532;7.684;2023-02-01T01:57:47;100637.66;;;4.55;85.75
70468;BME280;57934;51.532;7.684;2023-02-01T02:00:17;100619.38;;;4.55;85.51
70468;BME280;57934;51.532;7.684;2023-02-01T02:02:48;100617.03;;;4.52;85.87
70468;BME280;57934;51.532;7.684;2023-02-01T02:05:19;100610.72;;;4.55;86.47
70468;BME280;57934;51.532;7.684;2023-02-01T02:07:48;100610.44;;;4.58;86.60
70468;BME280;57934;51.532;7.684;2023-02-01T02:10:17;100605.94;;;4.50;86.84
70468;BME280;57934;51.532;7.684;2023-02-01T02:12:45;100608.41;;;4.52;86.69
70468;BME280;57934;51.532;7.684;2023-02-01T02:15:13;100601.81;;;4.48;87.68
70468;BME280;57934;51.532;7.684;2023-02-01T02:18:00;100603.34;;;4.50;87.33
70468;BME280;57934;51.532;7.684;2023-02-01T02:20:39;100612.50;;;4.54;87.12
70468;BME280;57934;51.532;7.684;2023-02-01T02:34:24;100591.63;;;4.54;87.39
70468;BME280;57934;51.532;7.684;2023-02-01T02:36:47;100579.53;;;4.53;87.83
70468;BME280;57934;51.532;7.684;2023-02-01T02:39:41;100582.81;;;4.55;88.09
70468;BME280;57934;51.532;7.684;2023-02-01T02:42:12;100584.47;;;4.57;88.28
70468;BME280;57934;51.532;7.684;2023-02-01T02:45:04;100582.38;;;4.60;87.82
70468;BME280;57934;51.532;7.684;2023-02-01T02:48:09;100587.16;;;4.65;87.57
70468;BME280;57934;51.532;7.684;2023-02-01T02:50:42;100582.38;;;4.60;87.97
70468;BME280;57934;51.532;7.684;2023-02-01T02:53:48;100580.59;;;4.61;87.64
70468;BME280;57934;51.532;7.684;2023-02-01T02:56:37;100574.25;;;4.63;87.37
70468;BME280;57934;51.532;7.684;2023-02-01T02:59:25;100572.91;;;4.59;87.63
70468;BME280;57934;51.532;7.684;2023-02-01T03:02:11;100569.63;;;4.57;87.38
70468;BME280;57934;51.532;7.684;2023-02-01T03:04:57;100564.41;;;4.57;87.34
70468;BME280;57934;51.532;7.684;2023-02-01T03:13:10;100557.00;;;4.52;87.07
70468;BME280;57934;51.532;7.684;2023-02-01T03:15:57;100543.28;;;4.50;86.07
70468;BME280;57934;51.532;7.684;2023-02-01T03:18:40;100547.44;;;4.43;86.66
70468;BME280;57934;51.532;7.684;2023-02-01T03:21:19;100534.69;;;4.40;87.04
70468;BME280;57934;51.532;7.684;2023-02-01T03:23:48;100523.94;;;4.43;86.38
70468;BME280;57934;51.532;7.684;2023-02-01T03:26:17;100527.53;;;4.42;86.33
70468;BME280;57934;51.532;7.684;2023-02-01T03:28:52;100528.19;;;4.44;86.04
70468;BME280;57934;51.532;7.684;2023-02-01T03:31:20;100525.75;;;4.43;86.20
70468;BME280;57934;51.532;7.684;2023-02-01T03:33:46;100526.09;;;4.48;85.86
70468;BME280;57934;51.532;7.684;2023-02-01T03:36:30;100519.78;;;4.50;85.51
70468;BME280;57934;51.532;7.684;2023-02-01T03:39:02;100521.41;;;4.51;84.70
70468;BME280;57934;51.532;7.684;2023-02-01T03:44:25;100522.91;;;4.54;84.74
70468;BME280;57934;51.532;7.684;2023-02-01T03:49:39;100519.91;;;4.49;85.43
70468;BME280;57934;51.532;7.684;2023-02-01T03:52:09;100523.66;;;4.46;84.82
70468;BME280;57934;51.532;7.684;2023-02-01T03:54:37;100523.66;;;4.46;84.73
70468;BME280;57934;51.532;7.684;2023-02-01T03:57:08;100520.75;;;4.49;83.97
70468;BME280;57934;51.532;7.684;2023-02-01T03:59:39;100526.69;;;4.42;84.50
70468;BME280;57934;51.532;7.684;2023-02-01T04:02:06;100519.25;;;4.47;84.70
70468;BME280;57934;51.532;7.684;2023-02-01T04:04:33;100505.22;;;4.48;84.32
70468;BME280;57934;51.532;7.684;2023-02-01T04:07:00;100496.56;;;4.47;84.58
70468;BME280;57934;51.532;7.684;2023-02-01T04:09:26;100501.97;;;4.46;84.42
70468;BME280;57934;51.532;7.684;2023-02-01T04:11:52;100499.63;;;4.43;84.29
70468;BME280;57934;51.532;7.684;2023-02-01T04:14:18;100520.38;;;4.44;84.37
70468;BME280;57934;51.532;7.684;2023-02-01T04:16:44;100519.09;;;4.48;83.92
70468;BME280;57934;51.532;7.684;2023-02-01T04:19:10;100518.97;;;4.50;84.61
70468;BME280;57934;51.532;7.684;2023-02-01T04:21:36;100517.16;;;4.50;84.31
70468;BME280;57934;51.532;7.684;2023-02-01T04:24:03;100518.16;;;4.49;84.67
70468;BME280;57934;51.532;7.684;2023-02-01T04:26:29;100515.38;;;4.51;83.95
70468;BME280;57934;51.532;7.684;2023-02-01T04:28:55;100507.09;;;4.55;84.06
70468;BME280;57934;51.532;7.684;2023-02-01T04:31:21;100520.00;;;4.57;84.21
70468;BME280;57934;51.532;7.684;2023-02-01T04:33:54;100501.88;;;4.55;83.80
70468;BME280;57934;51.532;7.684;2023-02-01T04:36:21;100507.09;;;4.55;84.09
70468;BME280;57934;51.532;7.684;2023-02-01T04:38:49;100507.53;;;4.51;84.24
70468;BME280;57934;51.532;7.684;2023-02-01T04:41:16;100499.03;;;4.49;84.74
70468;BME280;57934;51.532;7.684;2023-02-01T04:43:48;100499.25;;;4.55;84.92
70468;BME280;57934;51.532;7.684;2023-02-01T04:46:15;100500.59;;;4.60;84.68
70468;BME280;57934;51.532;7.684;2023-02-01T04:48:41;100490.16;;;4.60;84.78
70468;BME280;57934;51.532;7.684;2023-02-01T04:51:08;100491.94;;;4.59;84.90
70468;BME280;57934;51.532;7.684;2023-02-01T04:53:36;100478.75;;;4.61;85.02
70468;BME280;57934;51.532;7.684;2023-02-01T04:56:02;100487.00;;;4.56;84.54
70468;BME280;57934;51.532;7.684;2023-02-01T04:58:28;100494.31;;;4.52;85.42
70468;BME280;57934;51.532;7.684;2023-02-01T05:00:54;100480.97;;;4.55;85.32
70468;BME280;57934;51.532;7.684;2023-02-01T05:03:20;100486.88;;;4.58;85.60
70468;BME280;57934;51.532;7.684;2023-02-01T05:05:49;100491.13;;;4.59;85.31
70468;BME280;57934;51.532;7.684;2023-02-01T05:08:15;100495.69;;;4.57;85.36
70468;BME280;57934;51.532;7.684;2023-02-01T05:10:41;100500.28;;;4.63;85.74
70468;BME280;57934;51.532;7.684;2023-02-01T05:13:08;100499.34;;;4.64;85.24
70468;BME280;57934;51.532;7.684;2023-02-01T05:15:53;100501.63;;;4.67;85.60
70468;BME280;57934;51.532;7.684;2023-02-01T05:18:19;100501.34;;;4.70;85.60
70468;BME280;57934;51.532;7.684;2023-02-01T05:20:45;100494.47;;;4.69;85.64
70468;BME280;57934;51.532;7.684;2023-02-01T05:23:11;100487.09;;;4.64;85.04
70468;BME280;57934;51.532;7.684;2023-02-01T05:25:37;100496.41;;;4.67;85.69
70468;BME280;57934;51.532;7.684;2023-02-01T05:28:03;100489.56;;;4.66;85.44
70468;BME280;57934;51.532;7.684;2023-02-01T05:30:29;100492.97;;;4.66;85.67
70468;BME280;57934;51.532;7.684;2023-02-01T05:32:55;100487.09;;;4.64;86.17
70468;BME280;57934;51.532;7.684;2023-02-01T05:35:21;100490.84;;;4.62;85.52
70468;BME280;57934;51.532;7.684;2023-02-01T05:37:47;100512.41;;;4.64;85.83
70468;BME280;57934;51.532;7.684;2023-02-01T05:40:13;100509.09;;;4.62;85.74
70468;BME280;57934;51.532;7.684;2023-02-01T05:42:39;100524.19;;;4.68;86.02
70468;BME280;57934;51.532;7.684;2023-02-01T05:45:05;100504.63;;;4.72;85.31
70468;BME280;57934;51.532;7.684;2023-02-01T05:47:33;100508.88;;;4.73;85.40
70468;BME280;57934;51.532;7.684;2023-02-01T05:49:59;100495.53;;;4.76;84.78
70468;BME280;57934;51.532;7.684;2023-02-01T05:52:25;100494.03;;;4.73;85.31
70468;BME280;57934;51.532;7.684;2023-02-01T05:54:51;100496.81;;;4.72;85.24
70468;BME280;57934;51.532;7.684;2023-02-01T05:57:18;100491.13;;;4.76;84.92
70468;BME280;57934;51.532;7.684;2023-02-01T05:59:44;100480.38;;;4.79;84.93
70468;BME280;57934;51.532;7.684;2023-02-01T06:02:11;100478.53;;;4.72;84.58
70468;BME280;57934;51.532;7.684;2023-02-01T06:04:38;100471.19;;;4.75;85.18
70468;BME280;57934;51.532;7.684;2023-02-01T06:07:06;100465.81;;;4.77;84.97
70468;BME280;57934;51.532;7.684;2023-02-01T06:09:34;100457.97;;;4.77;84.67
70468;BME280;57934;51.532;7.684;2023-02-01T06:12:00;100466.16;;;4.74;84.85
70468;BME280;57934;51.532;7.684;2023-02-01T06:14:27;100474.28;;;4.71;85.24
70468;BME280;57934;51.532;7.684;2023-02-01T06:16:54;100465.47;;;4.72;85.01
70468;BME280;57934;51.532;7.684;2023-02-01T06:19:21;100473.59;;;4.69;85.76
70468;BME280;57934;51.532;7.684;2023-02-01T06:21:47;100473.88;;;4.66;86.08
70468;BME280;57934;51.532;7.684;2023-02-01T06:24:13;100476.78;;;4.63;85.51
70468;BME280;57934;51.532;7.684;2023-02-01T06:26:39;100479.28;;;4.64;85.92
70468;BME280;57934;51.532;7.684;2023-02-01T06:29:06;100502.31;;;4.69;85.65
70468;BME280;57934;51.532;7.684;2023-02-01T06:31:33;100501.63;;;4.67;85.63
70468;BME280;57934;51.532;7.684;2023-02-01T06:33:59;100485.03;;;4.68;85.83
70468;BME280;57934;51.532;7.684;2023-02-01T06:36:25;100497.91;;;4.69;85.52
70468;BME280;57934;51.532;7.684;2023-02-01T06:38:51;100502.03;;;4.72;85.97
70468;BME280;57934;51.532;7.684;2023-02-01T06:41:17;100498.72;;;4.70;85.26
70468;BME280;57934;51.532;7.684;2023-02-01T06:43:43;100496.63;;;4.73;85.26
70468;BME280;57934;51.532;7.684;2023-02-01T06:46:12;100496.97;;;4.70;85.36
70468;BME280;57934;51.532;7.684;2023-02-01T06:48:38;100506.34;;;4.63;85.69
70468;BME280;57934;51.532;7.684;2023-02-01T06:51:05;100498.97;;;4.59;85.89
70468;BME280;57934;51.532;7.684;2023-02-01T06:53:31;100509.56;;;4.57;86.12
70468;BME280;57934;51.532;7.684;2023-02-01T06:55:59;100505.00;;;4.59;85.74
70468;BME280;57934;51.532;7.684;2023-02-01T06:58:32;100509.78;;;4.64;85.78
70468;BME280;57934;51.532;7.684;2023-02-01T07:01:04;100506.22;;;4.65;85.68
70468;BME280;57934;51.532;7.684;2023-02-01T07:03:30;100501.13;;;4.63;86.29
70468;BME280;57934;51.532;7.684;2023-02-01T07:05:56;100508.81;;;4.65;85.94
70468;BME280;57934;51.532;7.684;2023-02-01T07:08:29;100519.25;;;4.65;85.63
70468;BME280;57934;51.532;7.684;2023-02-01T07:10:55;100507.72;;;4.67;86.04
70468;BME280;57934;51.532;7.684;2023-02-01T07:13:22;100512.78;;;4.69;85.36
70468;BME280;57934;51.532;7.684;2023-02-01T07:15:48;100530.75;;;4.72;85.65
70468;BME280;57934;51.532;7.684;2023-02-01T07:18:15;100536.50;;;4.75;85.77
70468;BME280;57934;51.532;7.684;2023-02-01T07:20:41;100552.19;;;4.75;85.24
70468;BME280;57934;51.532;7.684;2023-02-01T07:23:09;100546.66;;;4.78;85.40
70468;BME280;57934;51.532;7.684;2023-02-01T07:25:35;100561.22;;;4.81;84.92
70468;BME280;57934;51.532;7.684;2023-02-01T07:28:02;100550.91;;;4.79;85.26
70468;BME280;57934;51.532;7.684;2023-02-01T07:30:28;100543.28;;;4.86;85.08
70468;BME280;57934;51.532;7.684;2023-02-01T07:32:54;100558.97;;;4.86;85.17
70468;BME280;57934;51.532;7.684;2023-02-01T07:35:20;100565.53;;;4.90;85.04
70468;BME280;57934;51.532;7.684;2023-02-01T07:37:46;100549.34;;;4.87;85.19
70468;BME280;57934;51.532;7.684;2023-02-01T07:40:12;100559.13;;;4.85;85.18
70468;BME280;57934;51.532;7.684;2023-02-01T07:42:38;100555.38;;;4.87;84.97
70468;BME280;57934;51.532;7.684;2023-02-01T07:45:04;100560.06;;;4.84;85.04
70468;BME280;57934;51.532;7.684;2023-02-01T07:47:31;100572.84;;;4.87;85.30
70468;BME280;57934;51.532;7.684;2023-02-01T07:49:57;100563.59;;;4.92;84.89
70468;BME280;57934;51.532;7.684;2023-02-01T07:52:23;100565.75;;;4.97;84.82
70468;BME280;57934;51.532;7.684;2023-02-01T07:54:49;100570.69;;;5.00;84.55
70468;BME280;57934;51.532;7.684;2023-02-01T07:57:15;100560.41;;;4.98;84.69
70468;BME280;57934;51.532;7.684;2023-02-01T07:59:41;100575.09;;;4.99;84.59
70468;BME280;57934;51.532;7.684;2023-02-01T08:02:27;100570.84;;;4.98;84.34
70468;BME280;57934;51.532;7.684;2023-02-01T08:04:53;100580.03;;;5.02;84.69
70468;BME280;57934;51.532;7.684;2023-02-01T08:07:19;100574.94;;;5.01;84.93
70468;BME280;57934;51.532;7.684;2023-02-01T08:09:45;100568.06;;;5.00;84.90
70468;BME280;57934;51.532;7.684;2023-02-01T08:12:11;100569.56;;;5.02;84.67
70468;BME280;57934;51.532;7.684;2023-02-01T08:14:36;100565.97;;;5.03;84.89
70468;BME280;57934;51.532;7.684;2023-02-01T08:17:02;100572.19;;;5.02;84.56
70468;BME280;57934;51.532;7.684;2023-02-01T08:19:28;100566.81;;;5.04;85.06
70468;BME280;57934;51.532;7.684;2023-02-01T08:21:54;100557.47;;;5.01;84.77
70468;BME280;57934;51.532;7.684;2023-02-01T08:24:20;100570.41;;;5.03;84.58
70468;BME280;57934;51.532;7.684;2023-02-01T08:26:47;100572.50;;;4.99;84.56
70468;BME280;57934;51.532;7.684;2023-02-01T08:29:13;100571.50;;;5.00;84.89
70468;BME280;57934;51.532;7.684;2023-02-01T08:31:39;100575.75;;;5.01;84.72
70468;BME280;57934;51.532;7.684;2023-02-01T08:34:09;100582.47;;;5.04;84.44
70468;BME280;57934;51.532;7.684;2023-02-01T08:36:35;100584.81;;;5.07;84.05
70468;BME280;57934;51.532;7.684;2023-02-01T08:39:01;100584.97;;;5.06;84.63
70468;BME280;57934;51.532;7.684;2023-02-01T08:41:29;100581.88;;;5.10;84.16
70468;BME280;57934;51.532;7.684;2023-02-01T08:43:56;100565.91;;;5.13;84.74
70468;BME280;57934;51.532;7.684;2023-02-01T08:46:23;100576.19;;;5.15;84.64
70468;BME280;57934;51.532;7.684;2023-02-01T08:48:49;100583.59;;;5.19;84.37
70468;BME280;57934;51.532;7.684;2023-02-01T08:51:18;100574.63;;;5.22;84.52
70468;BME280;57934;51.532;7.684;2023-02-01T08:53:45;100574.72;;;5.30;83.99
70468;BME280;57934;51.532;7.684;2023-02-01T08:56:13;100590.91;;;5.34;83.63
70468;BME280;57934;51.532;7.684;2023-02-01T08:58:40;100588.44;;;5.32;83.31
70468;BME280;57934;51.532;7.684;2023-02-01T09:01:09;100570.00;;;5.34;83.07
70468;BME280;57934;51.532;7.684;2023-02-01T09:03:35;100583.78;;;5.44;82.69
70468;BME280;57934;51.532;7.684;2023-02-01T09:06:06;100579.31;;;5.36;82.96
70468;BME280;57934;51.532;7.684;2023-02-01T09:08:33;100576.19;;;5.33;82.85
70468;BME280;57934;51.532;7.684;2023-02-01T09:11:05;100572.63;;;5.34;82.70
70468;BME280;57934;51.532;7.684;2023-02-01T09:13:31;100590.81;;;5.25;83.65
70468;BME280;57934;51.532;7.684;2023-02-01T09:15:57;100590.19;;;5.23;83.78
70468;BME280;57934;51.532;7.684;2023-02-01T09:18:26;100584.13;;;5.23;84.10
70468;BME280;57934;51.532;7.684;2023-02-01T09:20:52;100580.06;;;5.29;84.44
70468;BME280;57934;51.532;7.684;2023-02-01T09:23:18;100580.06;;;5.29;84.38
70468;BME280;57934;51.532;7.684;2023-02-01T09:25:46;100573.78;;;5.39;84.15
70468;BME280;57934;51.532;7.684;2023-02-01T09:28:12;100569.06;;;5.43;83.67
70468;BME280;57934;51.532;7.684;2023-02-01T09:30:38;100555.59;;;5.56;83.41
70468;BME280;57934;51.532;7.684;2023-02-01T09:33:04;100561.63;;;5.56;82.73
70468;BME280;57934;51.532;7.684;2023-02-01T09:35:30;100551.00;;;5.58;82.96
70468;BME280;57934;51.532;7.684;2023-02-01T09:37:56;100547.78;;;5.64;82.95
70468;BME280;57934;51.532;7.684;2023-02-01T09:40:22;100553.41;;;5.69;82.48
70468;BME280;57934;51.532;7.684;2023-02-01T09:48:41;100549.13;;;5.68;82.45
70468;BME280;57934;51.532;7.684;2023-02-01T09:51:33;100562.56;;;5.73;82.17
70468;BME280;57934;51.532;7.684;2023-02-01T09:54:05;100561.25;;;5.69;82.26
70468;BME280;57934;51.532;7.684;2023-02-01T09:56:40;100560.25;;;5.70;81.93
70468;BME280;57934;51.532;7.684;2023-02-01T10:01:37;100566.91;;;5.64;82.09
70468;BME280;57934;51.532;7.684;2023-02-01T10:04:07;100565.13;;;5.65;81.95
70468;BME280;57934;51.532;7.684;2023-02-01T10:09:31;100565.00;;;5.74;81.22
70468;BME280;57934;51.532;7.684;2023-02-01T10:12:24;100546.09;;;5.81;80.65
70468;BME280;57934;51.532;7.684;2023-02-01T10:20:30;100548.97;;;5.69;81.65
70468;BME280;57934;51.532;7.684;2023-02-01T10:25:53;100534.63;;;5.82;81.53
70468;BME280;57934;51.532;7.684;2023-02-01T10:28:20;100544.03;;;5.92;81.06
70468;BME280;57934;51.532;7.684;2023-02-01T10:30:48;100541.50;;;6.09;79.56
70468;BME280;57934;51.532;7.684;2023-02-01T10:33:17;100541.50;;;6.09;80.08
70468;BME280;57934;51.532;7.684;2023-02-01T10:35:45;100546.38;;;6.04;79.97
70468;BME280;57934;51.532;7.684;2023-02-01T10:38:27;100561.78;;;6.07;80.00
70468;BME280;57934;51.532;7.684;2023-02-01T10:40:58;100541.13;;;6.04;80.15
70468;BME280;57934;51.532;7.684;2023-02-01T10:43:27;100542.84;;;5.87;81.06
70468;BME280;57934;51.532;7.684;2023-02-01T10:45:54;100547.84;;;5.98;80.43
70468;BME280;57934;51.532;7.684;2023-02-01T10:48:20;100540.81;;;5.98;80.11
70468;BME280;57934;51.532;7.684;2023-02-01T10:50:53;100554.38;;;5.94;80.14
70468;BME280;57934;51.532;7.684;2023-02-01T10:53:31;100548.09;;;5.87;79.79
70468;BME280;57934;51.532;7.684;2023-02-01T10:56:07;100537.31;;;5.90;80.72
70468;BME280;57934;51.532;7.684;2023-02-01T10:58:36;100539.25;;;5.88;81.11
70468;BME280;57934;51.532;7.684;2023-02-01T11:01:08;100537.75;;;5.85;80.54
70468;BME280;57934;51.532;7.684;2023-02-01T11:06:27;100538.34;;;5.71;81.29
70468;BME280;57934;51.532;7.684;2023-02-01T11:09:00;100539.84;;;5.73;81.65
70468;BME280;57934;51.532;7.684;2023-02-01T11:11:26;100537.22;;;5.73;81.91
70468;BME280;57934;51.532;7.684;2023-02-01T11:13:57;100527.88;;;5.71;81.29
70468;BME280;57934;51.532;7.684;2023-02-01T11:16:36;100519.03;;;5.72;81.55
70468;BME280;57934;51.532;7.684;2023-02-01T11:19:04;100505.97;;;5.72;80.95
70468;BME280;57934;51.532;7.684;2023-02-01T11:21:31;100520.41;;;5.76;81.04
70468;BME280;57934;51.532;7.684;2023-02-01T11:24:01;100524.47;;;5.79;81.08
70468;BME280;57934;51.532;7.684;2023-02-01T11:26:29;100512.25;;;5.79;80.93
70468;BME280;57934;51.532;7.684;2023-02-01T11:29:03;100518.13;;;5.81;80.45
70468;BME280;57934;51.532;7.684;2023-02-01T11:31:30;100507.16;;;5.78;81.14
70468;BME280;57934;51.532;7.684;2023-02-01T11:34:05;100503.69;;;5.69;81.23
70468;BME280;57934;51.532;7.684;2023-02-01T11:36:35;100501.06;;;5.69;81.29
70468;BME280;57934;51.532;7.684;2023-02-01T11:41:42;100485.81;;;5.64;81.73
70468;BME280;57934;51.532;7.684;2023-02-01T11:44:36;100477.25;;;5.80;81.71
70468;BME280;57934;51.532;7.684;2023-02-01T11:49:58;100446.28;;;6.02;80.54
70468;BME280;57934;51.532;7.684;2023-02-01T11:55:26;100456.13;;;6.24;80.04
70468;BME280;57934;51.532;7.684;2023-02-01T11:57:51;100450.25;;;6.38;79.54
70468;BME280;57934;51.532;7.684;2023-02-01T12:04:08;100446.63;;;6.23;79.89
70468;BME280;57934;51.532;7.684;2023-02-01T12:09:30;100423.38;;;6.12;80.18
70468;BME280;57934;51.532;7.684;2023-02-01T12:12:31;100417.97;;;6.05;80.86
70468;BME280;57934;51.532;7.684;2023-02-01T12:34:40;100421.56;;;5.01;91.65
70468;BME280;57934;51.532;7.684;2023-02-01T12:42:32;100420.03;;;4.91;92.92
70468;BME280;57934;51.532;7.684;2023-02-01T12:45:11;100420.84;;;4.91;92.79
70468;BME280;57934;51.532;7.684;2023-02-01T12:47:56;100406.16;;;4.90;93.15
70468;BME280;57934;51.532;7.684;2023-02-01T12:50:39;100404.22;;;4.92;92.80
70468;BME280;57934;51.532;7.684;2023-02-01T12:53:57;100401.03;;;5.07;92.69
70468;BME280;57934;51.532;7.684;2023-02-01T12:56:37;100378.75;;;5.20;91.56
70468;BME280;57934;51.532;7.684;2023-02-01T13:01:52;100381.47;;;5.11;90.86
70468;BME280;57934;51.532;7.684;2023-02-01T13:04:26;100366.97;;;5.16;90.64
70468;BME280;57934;51.532;7.684;2023-02-01T13:07:00;100364.56;;;5.23;90.42
70468;BME280;57934;51.532;7.684;2023-02-01T13:09:50;100365.19;;;5.25;90.66
70468;BME280;57934;51.532;7.684;2023-02-01T13:12:29;100373.72;;;5.27;90.99
70468;BME280;57934;51.532;7.684;2023-02-01T13:15:09;100375.16;;;5.30;90.66
70468;BME280;57934;51.532;7.684;2023-02-01T13:17:37;100376.31;;;5.27;91.39
70468;BME280;57934;51.532;7.684;2023-02-01T13:20:21;100382.50;;;5.26;91.57
70468;BME280;57934;51.532;7.684;2023-02-01T13:22:54;100385.59;;;5.21;92.64
70468;BME280;57934;51.532;7.684;2023-02-01T13:25:26;100393.25;;;5.15;92.93
70468;BME280;57934;51.532;7.684;2023-02-01T13:27:56;100393.84;;;5.09;93.75
70468;BME280;57934;51.532;7.684;2023-02-01T13:30:38;100394.69;;;5.09;93.67
70468;BME280;57934;51.532;7.684;2023-02-01T13:33:23;100390.28;;;5.10;93.45
70468;BME280;57934;51.532;7.684;2023-02-01T13:36:10;100387.47;;;5.03;94.19
70468;BME280;57934;51.532;7.684;2023-02-01T13:41:55;100388.28;;;5.03;95.57
70468;BME280;57934;51.532;7.684;2023-02-01T13:44:37;100385.84;;;5.02;94.57
70468;BME280;57934;51.532;7.684;2023-02-01T13:47:16;100390.72;;;5.05;94.21
70468;BME280;57934;51.532;7.684;2023-02-01T13:49:44;100394.53;;;5.11;94.05
70468;BME280;57934;51.532;7.684;2023-02-01T13:52:37;100389.00;;;5.14;93.67
70468;BME280;57934;51.532;7.684;2023-02-01T13:55:23;100392.59;;;5.13;93.49
70468;BME280;57934;51.532;7.684;2023-02-01T13:57:59;100388.81;;;5.15;92.93
70468;BME280;57934;51.532;7.684;2023-02-01T14:00:30;100388.38;;;5.20;92.19
70468;BME280;57934;51.532;7.684;2023-02-01T14:10:58;100407.69;;;5.27;91.43
70468;BME280;57934;51.532;7.684;2023-02-01T14:39:55;100401.97;;;5.23;93.72
70468;BME280;57934;51.532;7.684;2023-02-01T14:42:44;100407.19;;;5.23;93.75
70468;BME280;57934;51.532;7.684;2023-02-01T14:47:43;100421.41;;;5.29;92.58
70468;BME280;57934;51.532;7.684;2023-02-01T14:52:39;100420.19;;;5.41;91.23
70468;BME280;57934;51.532;7.684;2023-02-01T14:55:13;100418.59;;;5.48;91.02
70468;BME280;57934;51.532;7.684;2023-02-01T14:57:42;100419.91;;;5.53;91.09
70468;BME280;57934;51.532;7.684;2023-02-01T15:00:25;100424.00;;;5.55;91.58
70468;BME280;57934;51.532;7.684;2023-02-01T15:02:54;100419.91;;;5.53;91.33
70468;BME280;57934;51.532;7.684;2023-02-01T15:05:30;100419.91;;;5.53;91.20
70468;BME280;57934;51.532;7.684;2023-02-01T15:08:05;100417.28;;;5.53;91.70
70468;BME280;57934;51.532;7.684;2023-02-01T15:10:41;100426.94;;;5.52;90.62
70468;BME280;57934;51.532;7.684;2023-02-01T15:13:23;100415.78;;;5.50;91.61
70468;BME280;57934;51.532;7.684;2023-02-01T15:16:04;100422.69;;;5.51;91.63
70468;BME280;57934;51.532;7.684;2023-02-01T15:18:32;100432.63;;;5.47;91.28
70468;BME280;57934;51.532;7.684;2023-02-01T15:21:00;100424.63;;;5.49;91.21
70468;BME280;57934;51.532;7.684;2023-02-01T15:23:27;100430.16;;;5.46;91.28
70468;BME280;57934;51.532;7.684;2023-02-01T15:25:53;100435.22;;;5.47;90.48
70468;BME280;57934;51.532;7.684;2023-02-01T15:28:21;100439.81;;;5.45;90.30
70468;BME280;57934;51.532;7.684;2023-02-01T15:33:21;100434.91;;;5.50;90.07